createdAt,value
2022-11-30T00:00:08.044Z,39.39
2022-11-30T00:01:08.099Z,39.21
2022-11-30T00:02:08.284Z,39.21
2022-11-30T00:03:14.411Z,39.22
2022-11-30T00:04:08.394Z,39.29
2022-11-30T00:05:08.508Z,39.31
2022-11-30T00:06:08.552Z,39.16
2022-11-30T00:07:08.655Z,39.32
2022-11-30T00:08:08.740Z,39.31
2022-11-30T00:09:08.818Z,39.28
2022-11-30T00:10:08.878Z,39.34
2022-11-30T00:11:09.096Z,39.33
2022-11-30T00:12:09.057Z,39.21
2022-11-30T00:13:09.148Z,39.28
2022-11-30T00:14:09.227Z,39.26
2022-11-30T00:15:09.324Z,39.30
2022-11-30T00:16:09.426Z,39.39
2022-11-30T00:17:09.623Z,39.39
2022-11-30T00:18:09.621Z,39.48
2022-11-30T00:19:09.701Z,39.29
2022-11-30T00:20:09.789Z,39.25
2022-11-30T00:21:09.879Z,39.29
2022-11-30T00:22:09.984Z,39.18
2022-11-30T00:23:10.081Z,39.20
2022-11-30T00:24:10.156Z,39.17
2022-11-30T00:25:10.257Z,39.25
2022-11-30T00:26:10.351Z,39.22
2022-11-30T00:27:10.446Z,39.21
2022-11-30T00:28:10.656Z,39.56
2022-11-30T00:29:10.637Z,39.54
2022-11-30T00:30:10.725Z,39.44
2022-11-30T00:31:11.043Z,39.32
2022-11-30T00:32:10.938Z,39.21
2022-11-30T00:33:11.036Z,39.20
2022-11-30T00:34:17.518Z,39.23
2022-11-30T00:35:11.201Z,39.30
2022-11-30T00:36:11.270Z,39.17
2022-11-30T00:37:11.322Z,39.14
2022-11-30T00:38:11.411Z,39.33
2022-11-30T00:39:11.488Z,39.34
2022-11-30T00:40:11.635Z,39.18
2022-11-30T00:41:11.649Z,39.26
2022-11-30T00:42:11.732Z,39.35
2022-11-30T00:43:11.826Z,39.23
2022-11-30T00:44:11.927Z,39.30
2022-11-30T00:45:12.025Z,39.46
2022-11-30T00:46:12.182Z,39.27
2022-11-30T00:47:12.215Z,39.27
2022-11-30T00:48:12.315Z,39.23
2022-11-30T00:49:12.399Z,39.20
2022-11-30T00:50:12.495Z,39.29
2022-11-30T00:51:12.703Z,39.20
2022-11-30T00:52:12.687Z,39.18
2022-11-30T00:53:12.774Z,39.20
2022-11-30T00:54:12.860Z,39.29
2022-11-30T00:55:12.958Z,39.48
2022-11-30T00:56:13.047Z,39.34
2022-11-30T00:57:13.264Z,39.24
2022-11-30T00:58:13.225Z,39.28
2022-11-30T00:59:13.321Z,39.25
2022-11-30T01:00:13.440Z,39.18
2022-11-30T01:01:13.580Z,39.20
2022-11-30T01:02:13.629Z,39.18
2022-11-30T01:03:13.708Z,39.18
2022-11-30T01:04:13.788Z,39.16
2022-11-30T01:05:19.862Z,39.22
2022-11-30T01:06:13.965Z,39.19
2022-11-30T01:07:14.032Z,39.26
2022-11-30T01:08:14.222Z,39.24
2022-11-30T01:09:14.209Z,39.24
2022-11-30T01:10:14.275Z,39.23
2022-11-30T01:11:14.362Z,39.21
2022-11-30T01:12:14.449Z,39.24
2022-11-30T01:13:14.636Z,39.30
2022-11-30T01:14:14.617Z,39.24
2022-11-30T01:15:14.712Z,39.30
2022-11-30T01:16:14.836Z,39.22
2022-11-30T01:17:14.915Z,39.24
2022-11-30T01:18:15.012Z,39.44
2022-11-30T01:19:15.122Z,39.37
2022-11-30T01:20:15.172Z,39.29
2022-11-30T01:21:15.237Z,39.25
2022-11-30T01:22:15.333Z,39.31
2022-11-30T01:23:15.422Z,39.26
2022-11-30T01:24:15.604Z,39.28
2022-11-30T01:25:15.625Z,39.53
2022-11-30T01:26:15.686Z,39.23
2022-11-30T01:27:15.777Z,39.25
2022-11-30T01:28:15.871Z,39.28
2022-11-30T01:29:15.965Z,39.29
2022-11-30T01:30:16.125Z,39.34
2022-11-30T01:31:16.176Z,39.26
2022-11-30T01:32:16.169Z,39.33
2022-11-30T01:33:16.248Z,39.31
2022-11-30T01:34:16.307Z,39.34
2022-11-30T01:35:16.400Z,39.28
2022-11-30T01:36:22.648Z,39.25
2022-11-30T01:37:16.569Z,39.32
2022-11-30T01:38:16.645Z,39.22
2022-11-30T01:39:16.709Z,39.15
2022-11-30T01:40:16.803Z,39.20
2022-11-30T01:41:16.903Z,39.26
2022-11-30T01:42:17.062Z,39.21
2022-11-30T01:43:17.081Z,39.23
2022-11-30T01:44:20.094Z,39.20
2022-11-30T01:45:17.279Z,39.22
2022-11-30T01:46:17.399Z,39.27
2022-11-30T01:47:17.483Z,39.20
2022-11-30T01:48:17.567Z,39.25
2022-11-30T01:49:17.663Z,39.29
2022-11-30T01:50:17.772Z,39.24
2022-11-30T01:51:17.852Z,39.22
2022-11-30T01:52:17.947Z,39.21
2022-11-30T01:53:18.057Z,39.14
2022-11-30T01:54:18.119Z,39.24
2022-11-30T01:55:18.199Z,39.36
2022-11-30T01:56:18.297Z,39.25
2022-11-30T01:57:18.389Z,39.28
2022-11-30T01:58:18.514Z,39.29
2022-11-30T01:59:18.578Z,39.26
2022-11-30T02:00:18.665Z,39.31
2022-11-30T02:01:18.800Z,39.18
2022-11-30T02:02:19.009Z,39.32
2022-11-30T02:03:18.937Z,39.31
2022-11-30T02:04:19.058Z,39.34
2022-11-30T02:05:19.123Z,39.16
2022-11-30T02:06:19.202Z,39.22
2022-11-30T02:07:25.396Z,39.27
2022-11-30T02:08:19.477Z,39.31
2022-11-30T02:09:19.499Z,39.31
2022-11-30T02:10:19.562Z,39.34
2022-11-30T02:11:19.644Z,39.31
2022-11-30T02:12:19.707Z,39.21
2022-11-30T02:13:19.770Z,39.26
2022-11-30T02:14:19.862Z,39.23
2022-11-30T02:15:19.978Z,39.21
2022-11-30T02:16:20.062Z,39.21
2022-11-30T02:17:20.159Z,39.29
2022-11-30T02:18:20.213Z,39.44
2022-11-30T02:19:20.313Z,39.31
2022-11-30T02:20:20.423Z,39.42
2022-11-30T02:21:20.509Z,39.31
2022-11-30T02:22:20.568Z,39.31
2022-11-30T02:23:20.667Z,39.27
2022-11-30T02:24:20.762Z,39.20
2022-11-30T02:25:20.844Z,39.26
2022-11-30T02:26:20.947Z,39.34
2022-11-30T02:27:21.063Z,39.30
2022-11-30T02:28:21.149Z,39.19
2022-11-30T02:29:21.240Z,39.23
2022-11-30T02:30:21.295Z,39.33
2022-11-30T02:31:21.410Z,39.42
2022-11-30T02:32:21.435Z,39.25
2022-11-30T02:33:21.642Z,39.25
2022-11-30T02:34:21.587Z,39.28
2022-11-30T02:35:21.675Z,39.29
2022-11-30T02:36:21.771Z,39.35
2022-11-30T02:37:21.874Z,39.32
2022-11-30T02:38:28.203Z,39.26
2022-11-30T02:39:22.025Z,39.26
2022-11-30T02:40:22.087Z,39.22
2022-11-30T02:41:22.188Z,39.18
2022-11-30T02:42:22.288Z,39.27
2022-11-30T02:43:22.359Z,39.19
2022-11-30T02:44:22.562Z,39.21
2022-11-30T02:45:22.530Z,39.17
2022-11-30T02:46:22.632Z,39.20
2022-11-30T02:47:22.663Z,39.21
2022-11-30T02:48:22.767Z,39.17
2022-11-30T02:49:22.871Z,39.16
2022-11-30T02:50:23.021Z,39.22
2022-11-30T02:51:22.978Z,39.23
2022-11-30T02:52:23.061Z,39.28
2022-11-30T02:53:23.149Z,39.28
2022-11-30T02:54:23.235Z,39.32
2022-11-30T02:55:23.304Z,39.26
2022-11-30T02:56:23.406Z,39.28
2022-11-30T02:57:23.475Z,39.23
2022-11-30T02:58:23.523Z,39.28
2022-11-30T02:59:23.618Z,39.30
2022-11-30T03:00:23.709Z,39.35
2022-11-30T03:01:23.855Z,39.37
2022-11-30T03:02:23.934Z,39.23
2022-11-30T03:03:23.981Z,39.12
2022-11-30T03:04:24.070Z,39.27
2022-11-30T03:05:24.172Z,39.24
2022-11-30T03:06:24.273Z,39.23
2022-11-30T03:07:24.472Z,39.22
2022-11-30T03:08:24.436Z,39.18
2022-11-30T03:09:30.512Z,39.25
2022-11-30T03:10:24.619Z,39.28
2022-11-30T03:11:24.681Z,39.19
2022-11-30T03:12:24.903Z,39.38
2022-11-30T03:13:24.838Z,39.36
2022-11-30T03:14:24.942Z,39.28
2022-11-30T03:15:25.055Z,39.19
2022-11-30T03:16:25.123Z,39.30
2022-11-30T03:17:25.227Z,39.22
2022-11-30T03:18:25.330Z,39.21
2022-11-30T03:19:25.386Z,39.29
2022-11-30T03:20:25.473Z,39.26
2022-11-30T03:21:25.538Z,39.22
2022-11-30T03:22:25.646Z,39.19
2022-11-30T03:23:25.727Z,39.21
2022-11-30T03:24:25.789Z,39.24
2022-11-30T03:25:25.869Z,39.26
2022-11-30T03:26:25.963Z,39.21
2022-11-30T03:27:26.066Z,39.26
2022-11-30T03:28:26.176Z,39.32
2022-11-30T03:29:26.335Z,39.25
2022-11-30T03:30:26.319Z,39.16
2022-11-30T03:31:26.423Z,39.21
2022-11-30T03:32:26.492Z,39.21
2022-11-30T03:33:26.586Z,39.26
2022-11-30T03:34:26.791Z,39.16
2022-11-30T03:35:26.789Z,39.13
2022-11-30T03:36:26.841Z,39.19
2022-11-30T03:37:26.922Z,39.26
2022-11-30T03:38:27.023Z,39.28
2022-11-30T03:39:27.134Z,39.29
2022-11-30T03:40:33.655Z,39.31
2022-11-30T03:41:27.280Z,39.33
2022-11-30T03:42:27.381Z,39.48
2022-11-30T03:43:27.480Z,39.21
2022-11-30T03:44:27.565Z,39.26
2022-11-30T03:45:27.662Z,39.26
2022-11-30T03:46:27.932Z,39.36
2022-11-30T03:47:27.847Z,39.24
2022-11-30T03:48:27.944Z,39.14
2022-11-30T03:49:28.047Z,39.30
2022-11-30T03:50:28.147Z,39.35
2022-11-30T03:51:28.245Z,39.29
2022-11-30T03:52:28.428Z,39.27
2022-11-30T03:53:28.417Z,39.28
2022-11-30T03:54:28.506Z,39.32
2022-11-30T03:55:28.583Z,39.33
2022-11-30T03:56:28.678Z,39.31
2022-11-30T03:57:28.798Z,39.25
2022-11-30T03:58:28.861Z,39.15
2022-11-30T03:59:28.960Z,39.15
2022-11-30T04:00:29.045Z,39.11
2022-11-30T04:01:29.177Z,39.12
2022-11-30T04:02:29.265Z,39.14
2022-11-30T04:03:29.388Z,39.21
2022-11-30T04:04:29.378Z,39.19
2022-11-30T04:05:29.474Z,39.36
2022-11-30T04:06:29.544Z,39.40
2022-11-30T04:07:29.658Z,39.22
2022-11-30T04:08:29.698Z,39.22
2022-11-30T04:09:29.776Z,39.22
2022-11-30T04:10:29.875Z,39.18
2022-11-30T04:11:35.959Z,39.28
2022-11-30T04:12:30.053Z,39.25
2022-11-30T04:13:30.128Z,39.26
2022-11-30T04:14:30.226Z,39.18
2022-11-30T04:15:30.340Z,39.20
2022-11-30T04:16:30.535Z,39.29
2022-11-30T04:17:30.456Z,39.19
2022-11-30T04:18:30.557Z,39.26
2022-11-30T04:19:30.654Z,39.23
2022-11-30T04:20:30.703Z,39.19
2022-11-30T04:21:30.790Z,39.25
2022-11-30T04:22:30.876Z,39.26
2022-11-30T04:23:30.969Z,39.10
2022-11-30T04:24:31.074Z,39.20
2022-11-30T04:25:31.273Z,39.28
2022-11-30T04:26:31.264Z,39.17
2022-11-30T04:27:31.372Z,39.29
2022-11-30T04:28:31.429Z,39.34
2022-11-30T04:29:31.525Z,39.15
2022-11-30T04:30:31.641Z,39.29
2022-11-30T04:31:31.745Z,39.33
2022-11-30T04:32:31.797Z,39.13
2022-11-30T04:33:31.902Z,39.19
2022-11-30T04:34:31.992Z,39.11
2022-11-30T04:35:32.097Z,39.20
2022-11-30T04:36:32.203Z,39.16
2022-11-30T04:37:32.299Z,39.12
2022-11-30T04:38:32.373Z,39.18
2022-11-30T04:39:32.470Z,39.24
2022-11-30T04:40:32.566Z,39.23
2022-11-30T04:41:32.786Z,39.27
2022-11-30T04:42:38.736Z,39.19
2022-11-30T04:43:32.844Z,39.22
2022-11-30T04:44:32.949Z,39.32
2022-11-30T04:45:35.575Z,39.25
2022-11-30T04:46:33.146Z,39.22
2022-11-30T04:47:33.320Z,39.25
2022-11-30T04:48:33.295Z,39.25
2022-11-30T04:49:33.362Z,39.31
2022-11-30T04:50:33.435Z,39.36
2022-11-30T04:51:33.518Z,39.21
2022-11-30T04:52:33.625Z,39.27
2022-11-30T04:53:33.693Z,39.15
2022-11-30T04:54:33.768Z,39.25
2022-11-30T04:55:33.871Z,39.33
2022-11-30T04:56:33.950Z,39.19
2022-11-30T04:57:34.064Z,39.24
2022-11-30T04:58:34.169Z,39.16
2022-11-30T04:59:34.225Z,39.16
2022-11-30T05:00:34.328Z,39.27
2022-11-30T05:01:34.527Z,39.25
2022-11-30T05:02:34.448Z,39.22
2022-11-30T05:03:34.545Z,39.46
2022-11-30T05:04:34.624Z,39.16
2022-11-30T05:05:34.684Z,39.27
2022-11-30T05:06:34.774Z,39.30
2022-11-30T05:07:34.908Z,39.18
2022-11-30T05:08:34.940Z,39.29
2022-11-30T05:09:35.151Z,39.25
2022-11-30T05:10:35.122Z,39.33
2022-11-30T05:11:35.207Z,39.27
2022-11-30T05:12:35.286Z,39.30
2022-11-30T05:13:41.369Z,39.40
2022-11-30T05:14:35.575Z,39.30
2022-11-30T05:15:35.558Z,39.34
2022-11-30T05:16:35.678Z,39.47
2022-11-30T05:17:35.734Z,39.54
2022-11-30T05:18:35.821Z,39.44
2022-11-30T05:19:35.930Z,39.45
2022-11-30T05:20:36.121Z,39.43
2022-11-30T05:21:36.128Z,39.36
2022-11-30T05:22:36.177Z,39.33
2022-11-30T05:23:36.278Z,39.28
2022-11-30T05:24:36.366Z,39.44
2022-11-30T05:25:36.494Z,39.47
2022-11-30T05:26:36.563Z,39.35
2022-11-30T05:27:36.653Z,39.33
2022-11-30T05:28:36.755Z,39.38
2022-11-30T05:29:36.813Z,39.42
2022-11-30T05:30:36.908Z,39.39
2022-11-30T05:31:37.029Z,39.57
2022-11-30T05:32:37.046Z,39.43
2022-11-30T05:33:37.135Z,39.42
2022-11-30T05:34:49.586Z,39.27
2022-11-30T05:35:37.288Z,39.37
2022-11-30T05:36:37.369Z,39.44
2022-11-30T05:37:37.473Z,39.37
2022-11-30T05:38:37.540Z,39.24
2022-11-30T05:39:37.620Z,39.33
2022-11-30T05:40:37.721Z,39.34
2022-11-30T05:41:37.817Z,39.32
2022-11-30T05:42:37.899Z,39.28
2022-11-30T05:43:37.995Z,39.38
2022-11-30T05:44:44.188Z,39.46
2022-11-30T05:45:38.141Z,39.32
2022-11-30T05:46:40.950Z,39.28
2022-11-30T05:47:38.336Z,39.41
2022-11-30T05:48:38.415Z,39.40
2022-11-30T05:49:38.616Z,39.33
2022-11-30T05:50:38.596Z,39.42
2022-11-30T05:51:38.680Z,39.41
2022-11-30T05:52:38.764Z,39.37
2022-11-30T05:53:38.843Z,39.33
2022-11-30T05:54:38.932Z,39.33
2022-11-30T05:55:39.048Z,39.34
2022-11-30T05:56:39.111Z,39.40
2022-11-30T05:57:39.202Z,39.42
2022-11-30T05:58:39.292Z,39.45
2022-11-30T05:59:39.390Z,39.33
2022-11-30T06:00:39.591Z,39.28
2022-11-30T06:01:39.664Z,39.30
2022-11-30T06:02:39.869Z,39.24
2022-11-30T06:03:39.766Z,39.31
2022-11-30T06:04:39.859Z,39.32
2022-11-30T06:05:39.959Z,39.37
2022-11-30T06:06:40.173Z,39.30
2022-11-30T06:07:40.185Z,39.44
2022-11-30T06:08:40.250Z,39.24
2022-11-30T06:09:40.314Z,39.41
2022-11-30T06:10:40.409Z,39.31
2022-11-30T06:11:40.482Z,39.42
2022-11-30T06:12:40.555Z,39.46
2022-11-30T06:13:40.591Z,39.40
2022-11-30T06:14:40.658Z,39.15
2022-11-30T06:15:46.730Z,39.47
2022-11-30T06:16:41.026Z,39.21
2022-11-30T06:17:41.084Z,39.14
2022-11-30T06:18:41.026Z,39.34
2022-11-30T06:19:41.119Z,39.17
2022-11-30T06:20:41.212Z,39.35
2022-11-30T06:21:41.290Z,39.29
2022-11-30T06:22:41.385Z,39.27
2022-11-30T06:23:41.473Z,39.26
2022-11-30T06:24:41.533Z,39.38
2022-11-30T06:25:41.610Z,39.32
2022-11-30T06:26:41.704Z,39.33
2022-11-30T06:27:41.803Z,39.35
2022-11-30T06:28:46.594Z,39.29
2022-11-30T06:29:42.012Z,39.22
2022-11-30T06:30:42.087Z,39.31
2022-11-30T06:31:42.276Z,39.15
2022-11-30T06:32:42.229Z,39.20
2022-11-30T06:33:42.307Z,39.30
2022-11-30T06:34:42.371Z,39.19
2022-11-30T06:35:42.483Z,39.10
2022-11-30T06:36:42.559Z,39.25
2022-11-30T06:37:42.633Z,39.16
2022-11-30T06:38:42.728Z,39.35
2022-11-30T06:40:05.555Z,39.17
2022-11-30T06:41:57.753Z,39.09
2022-11-30T06:42:58.736Z,39.48
2022-11-30T06:43:58.842Z,39.48
2022-11-30T06:44:58.931Z,39.42
2022-11-30T06:45:59.079Z,39.43
2022-11-30T06:46:59.221Z,39.29
2022-11-30T06:47:59.206Z,39.21
2022-11-30T06:48:59.297Z,39.22
2022-11-30T06:49:59.402Z,39.34
2022-11-30T06:50:59.480Z,39.26
2022-11-30T06:51:59.824Z,39.15
2022-11-30T06:52:59.633Z,39.26
2022-11-30T06:53:59.732Z,39.20
2022-11-30T06:54:59.819Z,39.17
2022-11-30T06:55:59.907Z,39.40
2022-11-30T06:56:59.960Z,39.44
2022-11-30T06:58:00.174Z,39.21
2022-11-30T06:59:00.118Z,39.22
2022-11-30T07:00:00.210Z,39.38
2022-11-30T07:01:00.350Z,39.33
2022-11-30T07:02:05.928Z,39.23
2022-11-30T07:03:00.405Z,39.22
2022-11-30T07:04:00.634Z,39.26
2022-11-30T07:05:00.572Z,39.20
2022-11-30T07:06:00.673Z,39.30
2022-11-30T07:07:00.773Z,39.28
2022-11-30T07:08:00.904Z,39.28
2022-11-30T07:09:00.966Z,39.23
2022-11-30T07:10:01.140Z,39.20
2022-11-30T07:11:01.134Z,39.12
2022-11-30T07:12:07.138Z,39.20
2022-11-30T07:13:01.240Z,39.29
2022-11-30T07:14:01.334Z,39.20
2022-11-30T07:15:01.425Z,39.15
2022-11-30T07:16:01.495Z,39.23
2022-11-30T07:17:01.541Z,39.28
2022-11-30T07:18:01.644Z,39.17
2022-11-30T07:19:01.735Z,39.15
2022-11-30T07:20:01.800Z,39.08
2022-11-30T07:21:01.903Z,39.25
2022-11-30T07:22:02.075Z,39.15
2022-11-30T07:23:07.996Z,39.17
2022-11-30T07:24:08.080Z,39.15
2022-11-30T07:25:02.183Z,39.21
2022-11-30T07:26:02.259Z,39.20
2022-11-30T07:27:02.359Z,39.15
2022-11-30T07:28:02.542Z,39.21
2022-11-30T07:29:02.528Z,39.11
2022-11-30T07:30:02.606Z,39.07
2022-11-30T07:31:02.668Z,39.12
2022-11-30T07:32:02.846Z,39.15
2022-11-30T07:33:02.838Z,39.06
2022-11-30T07:34:02.917Z,39.15
2022-11-30T07:35:02.974Z,39.12
2022-11-30T07:36:03.072Z,39.10
2022-11-30T07:37:03.176Z,39.15
2022-11-30T07:38:09.475Z,39.07
2022-11-30T07:39:03.362Z,39.09
2022-11-30T07:40:03.549Z,39.14
2022-11-30T07:41:03.546Z,39.11
2022-11-30T07:42:03.621Z,39.13
2022-11-30T07:43:03.701Z,39.16
2022-11-30T07:44:03.776Z,39.07
2022-11-30T07:45:03.842Z,39.04
2022-11-30T07:46:04.057Z,39.11
2022-11-30T07:47:04.037Z,39.11
2022-11-30T07:48:04.109Z,39.12
2022-11-30T07:49:04.193Z,39.21
2022-11-30T07:50:04.275Z,39.02
2022-11-30T07:51:04.334Z,39.15
2022-11-30T07:52:04.530Z,39.08
2022-11-30T07:53:04.450Z,39.12
2022-11-30T07:54:04.556Z,39.07
2022-11-30T07:55:10.619Z,39.11
2022-11-30T07:56:04.731Z,39.14
2022-11-30T07:57:04.825Z,39.17
2022-11-30T07:58:05.010Z,39.07
2022-11-30T07:59:04.992Z,39.22
2022-11-30T08:00:05.042Z,39.25
2022-11-30T08:01:05.260Z,39.08
2022-11-30T08:02:05.427Z,39.18
2022-11-30T08:03:05.302Z,39.14
2022-11-30T08:04:05.395Z,39.34
2022-11-30T08:05:05.512Z,39.12
2022-11-30T08:06:05.575Z,39.22
2022-11-30T08:07:05.656Z,39.21
2022-11-30T08:08:05.717Z,39.21
2022-11-30T08:09:05.882Z,39.12
2022-11-30T08:10:05.840Z,39.20
2022-11-30T08:11:05.944Z,39.25
2022-11-30T08:12:06.051Z,39.20
2022-11-30T08:13:06.156Z,39.20
2022-11-30T08:14:06.245Z,39.16
2022-11-30T08:15:24.056Z,39.18
2022-11-30T08:16:06.381Z,39.17
2022-11-30T08:17:06.506Z,39.18
2022-11-30T08:18:06.570Z,39.16
2022-11-30T08:19:06.667Z,39.23
2022-11-30T08:20:06.751Z,39.19
2022-11-30T08:21:06.819Z,39.31
2022-11-30T08:22:06.902Z,39.25
2022-11-30T08:23:07.012Z,39.12
2022-11-30T08:24:07.146Z,39.22
2022-11-30T08:25:07.164Z,39.26
2022-11-30T08:26:13.377Z,39.22
2022-11-30T08:27:07.338Z,39.11
2022-11-30T08:28:07.443Z,39.20
2022-11-30T08:29:07.579Z,39.15
2022-11-30T08:30:07.620Z,39.20
2022-11-30T08:31:07.792Z,39.13
2022-11-30T08:32:07.874Z,39.19
2022-11-30T08:33:07.862Z,39.01
2022-11-30T08:34:07.917Z,39.05
2022-11-30T08:35:08.005Z,39.09
2022-11-30T08:36:08.111Z,39.17
2022-11-30T08:37:08.231Z,39.10
2022-11-30T08:38:08.461Z,39.08
2022-11-30T08:39:08.426Z,39.06
2022-11-30T08:40:08.577Z,39.21
2022-11-30T08:41:08.563Z,39.19
2022-11-30T08:42:08.659Z,39.18
2022-11-30T08:43:08.778Z,39.28
2022-11-30T08:44:08.842Z,39.16
2022-11-30T08:45:08.937Z,39.07
2022-11-30T08:46:27.927Z,39.12
2022-11-30T08:47:09.154Z,39.15
2022-11-30T08:48:09.156Z,39.12
2022-11-30T08:49:25.416Z,39.05
2022-11-30T08:50:09.310Z,39.13
2022-11-30T08:51:09.354Z,39.02
2022-11-30T08:52:18.215Z,39.13
2022-11-30T08:53:09.510Z,39.19
2022-11-30T08:54:09.697Z,39.09
2022-11-30T08:55:09.692Z,39.00
2022-11-30T08:56:09.784Z,39.12
2022-11-30T08:57:15.861Z,39.09
2022-11-30T08:58:09.922Z,39.04
2022-11-30T08:59:10.013Z,39.09
2022-11-30T09:00:10.068Z,39.10
2022-11-30T09:01:10.124Z,39.10
2022-11-30T09:02:10.262Z,39.07
2022-11-30T09:03:10.280Z,39.06
2022-11-30T09:04:10.372Z,39.09
2022-11-30T09:05:11.114Z,39.10
2022-11-30T09:06:10.557Z,39.05
2022-11-30T09:07:10.654Z,39.14
2022-11-30T09:08:10.759Z,39.08
2022-11-30T09:09:10.799Z,39.09
2022-11-30T09:10:10.853Z,39.11
2022-11-30T09:11:11.083Z,39.05
2022-11-30T09:12:11.052Z,39.10
2022-11-30T09:13:11.143Z,39.07
2022-11-30T09:14:11.291Z,39.08
2022-11-30T09:15:11.366Z,39.07
2022-11-30T09:16:11.567Z,39.00
2022-11-30T09:17:11.542Z,39.05
2022-11-30T09:18:11.590Z,39.02
2022-11-30T09:19:11.674Z,38.98
2022-11-30T09:20:11.774Z,39.00
2022-11-30T09:21:11.881Z,39.02
2022-11-30T09:22:11.982Z,39.07
2022-11-30T09:23:12.067Z,39.09
2022-11-30T09:24:12.141Z,39.08
2022-11-30T09:25:12.205Z,39.03
2022-11-30T09:26:12.310Z,39.04
2022-11-30T09:27:12.411Z,39.08
2022-11-30T09:28:20.384Z,39.07
2022-11-30T09:29:12.565Z,39.08
2022-11-30T09:30:12.658Z,39.16
2022-11-30T09:31:12.813Z,39.13
2022-11-30T09:32:12.832Z,39.16
2022-11-30T09:33:12.926Z,39.16
2022-11-30T09:34:13.031Z,39.11
2022-11-30T09:35:13.280Z,39.07
2022-11-30T09:36:13.183Z,39.10
2022-11-30T09:37:13.255Z,39.09
2022-11-30T09:38:13.358Z,39.10
2022-11-30T09:39:13.570Z,39.13
2022-11-30T09:40:13.540Z,39.11
2022-11-30T09:41:13.609Z,39.04
2022-11-30T09:42:13.702Z,39.12
2022-11-30T09:43:13.797Z,39.16
2022-11-30T09:44:13.859Z,39.11
2022-11-30T09:45:14.059Z,39.15
2022-11-30T09:46:14.091Z,39.15
2022-11-30T09:47:14.127Z,39.17
2022-11-30T09:48:14.218Z,39.17
2022-11-30T09:49:14.304Z,39.09
2022-11-30T09:50:14.416Z,39.12
2022-11-30T09:51:14.516Z,39.10
2022-11-30T09:52:14.575Z,39.12
2022-11-30T09:53:14.661Z,39.08
2022-11-30T09:54:14.731Z,39.13
2022-11-30T09:55:14.821Z,39.08
2022-11-30T09:56:14.908Z,39.09
2022-11-30T09:57:15.075Z,39.08
2022-11-30T09:58:15.063Z,39.12
2022-11-30T09:59:21.518Z,39.11
2022-11-30T10:00:15.228Z,39.15
2022-11-30T10:01:15.374Z,39.16
2022-11-30T10:02:15.577Z,39.21
2022-11-30T10:03:15.658Z,39.14
2022-11-30T10:04:15.564Z,39.21
2022-11-30T10:05:15.653Z,39.17
2022-11-30T10:06:15.833Z,39.12
2022-11-30T10:07:15.802Z,39.19
2022-11-30T10:08:17.921Z,39.16
2022-11-30T10:09:16.051Z,39.15
2022-11-30T10:10:34.518Z,39.19
2022-11-30T10:11:16.106Z,39.20
2022-11-30T10:12:16.194Z,39.19
2022-11-30T10:13:16.276Z,39.16
2022-11-30T10:14:16.364Z,39.16
2022-11-30T10:15:23.028Z,39.14
2022-11-30T10:16:16.581Z,39.16
2022-11-30T10:17:22.626Z,39.20
2022-11-30T10:18:16.735Z,39.21
2022-11-30T10:19:16.836Z,39.20
2022-11-30T10:20:17.029Z,39.21
2022-11-30T10:21:17.125Z,39.18
2022-11-30T10:22:17.102Z,39.18
2022-11-30T10:23:17.199Z,39.16
2022-11-30T10:24:17.296Z,39.25
2022-11-30T10:25:17.370Z,39.19
2022-11-30T10:26:17.434Z,39.20
2022-11-30T10:27:17.632Z,39.15
2022-11-30T10:28:45.488Z,39.11
2022-11-30T10:29:17.719Z,39.16
2022-11-30T10:30:23.766Z,39.12
2022-11-30T10:31:17.964Z,39.19
2022-11-30T10:32:17.976Z,39.17
2022-11-30T10:33:18.163Z,39.21
2022-11-30T10:34:18.147Z,39.15
2022-11-30T10:35:24.392Z,39.14
2022-11-30T10:36:18.313Z,39.18
2022-11-30T10:37:18.406Z,39.16
2022-11-30T10:38:18.586Z,39.15
2022-11-30T10:39:18.581Z,39.18
2022-11-30T10:40:18.698Z,39.16
2022-11-30T10:41:24.756Z,39.15
2022-11-30T10:42:18.875Z,39.19
2022-11-30T10:43:18.959Z,39.13
2022-11-30T10:44:19.150Z,39.17
2022-11-30T10:45:19.282Z,39.19
2022-11-30T10:46:19.306Z,39.18
2022-11-30T10:47:19.310Z,39.20
2022-11-30T10:48:19.385Z,39.17
2022-11-30T10:49:19.514Z,39.17
2022-11-30T10:50:19.639Z,39.18
2022-11-30T10:51:19.597Z,39.20
2022-11-30T10:52:19.682Z,39.14
2022-11-30T10:53:19.781Z,39.20
2022-11-30T10:54:19.867Z,39.16
2022-11-30T10:55:19.960Z,39.16
2022-11-30T10:56:20.149Z,39.16
2022-11-30T10:57:20.138Z,39.21
2022-11-30T10:58:20.229Z,39.12
2022-11-30T10:59:20.336Z,39.11
2022-11-30T11:00:20.403Z,39.14
2022-11-30T11:01:20.644Z,39.18
2022-11-30T11:02:20.616Z,39.14
2022-11-30T11:03:20.695Z,39.10
2022-11-30T11:04:20.852Z,39.15
2022-11-30T11:05:20.877Z,39.13
2022-11-30T11:06:20.966Z,39.12
2022-11-30T11:07:21.085Z,39.18
2022-11-30T11:08:21.174Z,39.08
2022-11-30T11:09:21.223Z,39.09
2022-11-30T11:10:21.260Z,39.14
2022-11-30T11:11:21.348Z,39.06
2022-11-30T11:12:27.633Z,39.12
2022-11-30T11:13:21.532Z,39.13
2022-11-30T11:14:21.631Z,39.10
2022-11-30T11:15:21.717Z,39.15
2022-11-30T11:16:21.845Z,39.17
2022-11-30T11:17:21.887Z,39.10
2022-11-30T11:18:21.975Z,39.13
2022-11-30T11:19:22.037Z,39.13
2022-11-30T11:20:22.104Z,39.16
2022-11-30T11:21:22.194Z,39.14
2022-11-30T11:22:22.282Z,39.12
2022-11-30T11:23:22.368Z,39.12
2022-11-30T11:24:22.570Z,39.09
2022-11-30T11:25:22.553Z,39.18
2022-11-30T11:26:22.613Z,39.14
2022-11-30T11:27:22.701Z,39.10
2022-11-30T11:28:22.797Z,39.14
2022-11-30T11:29:22.877Z,39.16
2022-11-30T11:30:22.990Z,39.05
2022-11-30T11:31:23.125Z,39.12
2022-11-30T11:32:23.123Z,39.10
2022-11-30T11:33:23.178Z,39.06
2022-11-30T11:34:23.253Z,39.15
2022-11-30T11:35:23.304Z,39.14
2022-11-30T11:36:23.402Z,39.11
2022-11-30T11:37:23.479Z,39.11
2022-11-30T11:38:23.576Z,39.12
2022-11-30T11:39:23.654Z,39.07
2022-11-30T11:40:23.748Z,39.09
2022-11-30T11:41:23.840Z,39.08
2022-11-30T11:42:23.913Z,39.14
2022-11-30T11:43:29.945Z,39.09
2022-11-30T11:44:24.094Z,39.12
2022-11-30T11:45:24.145Z,39.06
2022-11-30T11:46:24.251Z,39.14
2022-11-30T11:47:24.406Z,39.12
2022-11-30T11:48:28.856Z,39.15
2022-11-30T11:49:24.469Z,39.13
2022-11-30T11:50:57.713Z,39.11
2022-11-30T11:51:24.592Z,39.16
2022-11-30T11:52:24.804Z,39.13
2022-11-30T11:53:24.977Z,39.13
2022-11-30T11:54:24.856Z,39.14
2022-11-30T11:55:24.951Z,39.13
2022-11-30T11:56:25.040Z,39.13
2022-11-30T11:57:25.135Z,39.21
2022-11-30T11:58:25.225Z,39.09
2022-11-30T11:59:29.444Z,39.13
2022-11-30T12:00:25.384Z,39.13
2022-11-30T12:01:39.770Z,39.15
2022-11-30T12:02:25.500Z,39.15
2022-11-30T12:03:25.584Z,39.16
2022-11-30T12:04:25.668Z,39.17
2022-11-30T12:05:25.704Z,39.13
2022-11-30T12:06:25.806Z,39.11
2022-11-30T12:07:25.970Z,39.10
2022-11-30T12:08:26.006Z,39.08
2022-11-30T12:09:26.117Z,39.09
2022-11-30T12:10:51.395Z,39.10
2022-11-30T12:11:26.261Z,39.11
2022-11-30T12:12:26.336Z,39.10
2022-11-30T12:13:26.440Z,39.12
2022-11-30T12:14:32.605Z,39.11
2022-11-30T12:15:26.615Z,39.13
2022-11-30T12:16:26.740Z,39.17
2022-11-30T12:17:26.771Z,39.14
2022-11-30T12:18:26.866Z,39.11
2022-11-30T12:19:26.958Z,39.16
2022-11-30T12:20:27.151Z,39.14
2022-11-30T12:21:27.151Z,39.10
2022-11-30T12:22:27.245Z,39.08
2022-11-30T12:23:27.296Z,39.10
2022-11-30T12:24:27.380Z,39.08
2022-11-30T12:25:27.440Z,39.09
2022-11-30T12:26:27.629Z,39.10
2022-11-30T12:27:27.589Z,39.09
2022-11-30T12:28:27.707Z,39.08
2022-11-30T12:29:27.770Z,39.07
2022-11-30T12:30:27.869Z,39.04
2022-11-30T12:31:28.002Z,39.06
2022-11-30T12:32:28.070Z,39.10
2022-11-30T12:33:28.131Z,39.07
2022-11-30T12:34:28.185Z,39.08
2022-11-30T12:35:28.293Z,39.08
2022-11-30T12:36:28.384Z,39.05
2022-11-30T12:37:28.513Z,39.06
2022-11-30T12:38:28.577Z,39.03
2022-11-30T12:39:28.673Z,39.06
2022-11-30T12:40:28.769Z,39.03
2022-11-30T12:41:28.867Z,39.06
2022-11-30T12:42:28.977Z,39.08
2022-11-30T12:43:29.095Z,39.04
2022-11-30T12:44:29.194Z,39.07
2022-11-30T12:45:35.238Z,39.06
2022-11-30T12:46:29.392Z,39.06
2022-11-30T12:47:29.448Z,39.08
2022-11-30T12:48:29.747Z,39.08
2022-11-30T12:49:29.630Z,39.09
2022-11-30T12:50:29.713Z,39.10
2022-11-30T12:51:30.314Z,39.08
2022-11-30T12:52:29.932Z,39.07
2022-11-30T12:53:30.010Z,39.09
2022-11-30T12:54:30.202Z,39.14